Meteo Giornale » Osservazioni meteo Italia » Perugia

ore: 15:50 - Osservazioni Meteo Perugia
Lat. 43° 5' N Lon. 12° 30' E Alt. 208 metri s.l.m.

molto_nuvoloso Europe/Rome

13 °C

Molto Nuvoloso

Temp. 24 Ore

1 °C

14 °C

Nord/Nord-Est

14.8 Km/h

Dew point 1 °C

Umidità 43 %

Visibilità  0 Km

Il sole sorge alle ore 06:26

Il sole tramonta alle ore 19:53

Data e Ora Cielo e Fenomeni T °C DP °C Um. % Pres. hPa Vis. km Vento km/h
Oggi h: 15:50 molto_nuvoloso Molto Nuvoloso 13 1 43 1018 0 N/NE 14.8
Oggi h: 15:20 molto_nuvoloso Molto Nuvoloso 14 3 47 1018 0 N 18.5
Oggi h: 14:50 molto_nuvoloso Molto Nuvoloso 13 2 47 1019 0 N/NE 7.4
Oggi h: 14:20 molto_nuvoloso Molto Nuvoloso 13 1 43 1019 0 N/NE 11.1
Oggi h: 13:50 molto_nuvoloso Molto Nuvoloso 13 2 47 1019 0 N/NE 13
Oggi h: 13:20 molto_nuvoloso Molto Nuvoloso 13 2 47 1019 0 N 11.1
Oggi h: 12:50 molto_nuvoloso Molto Nuvoloso 13 2 47 1019 0 N 3.7
Oggi h: 12:20 nuvoloso Nuvoloso 13 1 43 1019 0 N 1.8
Oggi h: 11:50 nuvoloso Nuvoloso 12 2 50 1020 0 N 5.5
Oggi h: 11:20 molto_nuvoloso Molto Nuvoloso 11 2 53 1020 0 N 5.5
Oggi h: 10:50 molto_nuvoloso Molto Nuvoloso 11 1 50 1020 0 N 1.8
Oggi h: 10:20 poco_nuvoloso Poco Nuvoloso 11 1 50 1020 0 N 3.7
Oggi h: 09:50 poco_nuvoloso Poco Nuvoloso 9 1 57 1020 0 N 3.7
Oggi h: 09:20 poco_nuvoloso Poco Nuvoloso 8 1 61 1020 0 N 5.5
Oggi h: 08:50 sereno Sereno 6 0 65 1020 0 N 5.5
Oggi h: 08:20 sereno Sereno 5 -0 70 1020 0 N/NE 7.4
Oggi h: 07:50 sereno Sereno 4 -1 69 1020 0 N 7.4
Oggi h: 07:20 nuvoloso Nuvoloso 2 -1 80 1020 0 N 13
Oggi h: 06:50 nuvoloso Nuvoloso 1 -1 86 1020 0 N 9.3
Oggi h: 06:20 poco_nuvoloso Poco Nuvoloso 1 -2 80 1020 0 N 11.1
Oggi h: 05:50 sereno Sereno 2 -2 74 1019 0 N/NO 11.1
Oggi h: 05:20 sereno Sereno 1 -2 80 1019 0 N 13
Oggi h: 04:50 poco_nuvoloso Poco Nuvoloso 2 -2 74 1019 0 N 11.1
Oggi h: 04:20 sereno Sereno 1 -1 86 1019 0 N/NO 11.1
Oggi h: 03:50 molto_nuvoloso Molto Nuvoloso 3 -1 74 1019 0 N/NO 9.3
Oggi h: 03:20 molto_nuvoloso Molto Nuvoloso 4 -1 69 1019 0 N 13
Oggi h: 02:50 molto_nuvoloso Molto Nuvoloso 4 -1 69 1019 0 N 9.3
Oggi h: 01:50 molto_nuvoloso Molto Nuvoloso 5 -0 70 1020 0 N 11.1
Oggi h: 01:20 molto_nuvoloso Molto Nuvoloso 5 -1 65 1020 0 N 11.1
Oggi h: 00:50 molto_nuvoloso Molto Nuvoloso 5 -1 65 1020 0 N 14.8
Ieri h: 23:50 poco_nuvoloso Poco Nuvoloso 6 -1 60 1020 0 N 14.8
Ieri h: 23:20 nuvoloso Nuvoloso 7 -1 56 1020 0 N 14.8
Ieri h: 22:50 nuvoloso Nuvoloso 6 -0 65 1020 0 N 14.8
Ieri h: 22:20 molto_nuvoloso Molto Nuvoloso 7 -0 60 1020 0 N 14.8
Ieri h: 21:50 molto_nuvoloso Molto Nuvoloso 8 -0 56 1020 0 N 14.8
Ieri h: 21:20 sereno Sereno 7 -1 56 1020 0 N 13
Ieri h: 20:50 sereno Sereno 7 -1 56 1020 0 N 14.8
Ieri h: 20:20 sereno Sereno 8 -1 52 1019 0 N/NE 14.8
Ieri h: 19:50 sereno Sereno 10 -1 46 1019 0 NE 16.7
Ieri h: 19:20 sereno Sereno 10 -1 46 1019 0 NE 16.7
Ieri h: 18:50 sereno Sereno 11 -1 43 1019 0 NE 20.3
Ieri h: 18:20 sereno Sereno 11 -1 43 1019 0 N/NE 24
Ieri h: 17:20 sereno Sereno 13 -0 40 1019 0 N/NE 24
Ieri h: 16:50 sereno Sereno 13 -1 37 1019 0 NE 24